sensor_id;sensor_type;location;lat;lon;timestamp;pressure;altitude;pressure_sealevel;temperature;humidity
74045;BME280;62389;51.412;5.436;2023-07-13T00:01:27;101332.06;;;16.31;66.65
74045;BME280;62389;51.412;5.436;2023-07-13T00:03:53;101329.69;;;16.27;67.36
74045;BME280;62389;51.412;5.436;2023-07-13T00:06:18;101329.00;;;16.23;67.41
74045;BME280;62389;51.412;5.436;2023-07-13T00:08:45;101335.69;;;16.15;67.83
74045;BME280;62389;51.412;5.436;2023-07-13T00:11:10;101321.75;;;16.13;69.04
74045;BME280;62389;51.412;5.436;2023-07-13T00:13:36;101322.47;;;16.15;69.25
74045;BME280;62389;51.412;5.436;2023-07-13T00:16:03;101322.38;;;16.16;69.42
74045;BME280;62389;51.412;5.436;2023-07-13T00:18:29;101329.56;;;16.14;68.33
74045;BME280;62389;51.412;5.436;2023-07-13T00:20:55;101336.06;;;16.09;67.99
74045;BME280;62389;51.412;5.436;2023-07-13T00:23:21;101329.06;;;16.08;68.36
74045;BME280;62389;51.412;5.436;2023-07-13T00:25:46;101328.41;;;16.04;68.45
74045;BME280;62389;51.412;5.436;2023-07-13T00:28:11;101331.78;;;16.06;70.05
74045;BME280;62389;51.412;5.436;2023-07-13T00:30:37;101324.16;;;16.01;68.73
74045;BME280;62389;51.412;5.436;2023-07-13T00:33:02;101330.81;;;15.93;69.28
74045;BME280;62389;51.412;5.436;2023-07-13T00:35:30;101327.78;;;15.85;69.49
74045;BME280;62389;51.412;5.436;2023-07-13T00:37:56;101331.44;;;15.82;70.54
74045;BME280;62389;51.412;5.436;2023-07-13T00:40:21;101322.94;;;15.77;70.41
74045;BME280;62389;51.412;5.436;2023-07-13T00:42:47;101336.13;;;15.77;70.95
74045;BME280;62389;51.412;5.436;2023-07-13T00:47:38;101346.16;;;15.70;71.09
74045;BME280;62389;51.412;5.436;2023-07-13T00:50:13;101347.53;;;15.62;71.80
74045;BME280;62389;51.412;5.436;2023-07-13T00:52:41;101343.38;;;15.58;72.02
74045;BME280;62389;51.412;5.436;2023-07-13T00:55:08;101337.16;;;15.59;72.02
74045;BME280;62389;51.412;5.436;2023-07-13T00:57:34;101343.16;;;15.61;71.50
74045;BME280;62389;51.412;5.436;2023-07-13T01:00:03;101336.31;;;15.58;71.66
74045;BME280;62389;51.412;5.436;2023-07-13T01:02:32;101340.41;;;15.64;71.68
74045;BME280;62389;51.412;5.436;2023-07-13T01:04:58;101342.78;;;15.68;72.14
74045;BME280;62389;51.412;5.436;2023-07-13T01:07:23;101334.72;;;15.71;71.69
74045;BME280;62389;51.412;5.436;2023-07-13T01:09:49;101331.03;;;15.74;72.42
74045;BME280;62389;51.412;5.436;2023-07-13T01:12:14;101339.88;;;15.73;72.14
74045;BME280;62389;51.412;5.436;2023-07-13T01:14:40;101347.22;;;15.68;72.14
74045;BME280;62389;51.412;5.436;2023-07-13T01:17:09;101346.66;;;15.61;72.16
74045;BME280;62389;51.412;5.436;2023-07-13T01:19:41;101354.75;;;15.58;71.84
74045;BME280;62389;51.412;5.436;2023-07-13T01:22:18;101344.47;;;15.53;72.39
74045;BME280;62389;51.412;5.436;2023-07-13T01:24:46;101353.66;;;15.46;73.52
74045;BME280;62389;51.412;5.436;2023-07-13T01:27:14;101347.03;;;15.39;73.36
74045;BME280;62389;51.412;5.436;2023-07-13T01:29:44;101349.50;;;15.42;73.48
74045;BME280;62389;51.412;5.436;2023-07-13T01:32:17;101343.13;;;15.46;73.68
74045;BME280;62389;51.412;5.436;2023-07-13T01:34:48;101347.50;;;15.46;73.72
74045;BME280;62389;51.412;5.436;2023-07-13T01:37:13;101344.81;;;15.47;73.61
74045;BME280;62389;51.412;5.436;2023-07-13T01:39:39;101348.19;;;15.49;73.77
74045;BME280;62389;51.412;5.436;2023-07-13T01:42:04;101345.16;;;15.41;74.41
74045;BME280;62389;51.412;5.436;2023-07-13T01:44:30;101347.22;;;15.36;74.38
74045;BME280;62389;51.412;5.436;2023-07-13T01:46:56;101347.13;;;15.38;74.88
74045;BME280;62389;51.412;5.436;2023-07-13T01:49:21;101345.56;;;15.34;74.48
74045;BME280;62389;51.412;5.436;2023-07-13T01:51:46;101352.03;;;15.28;74.88
74045;BME280;62389;51.412;5.436;2023-07-13T01:54:12;101348.03;;;15.21;75.10
74045;BME280;62389;51.412;5.436;2023-07-13T01:56:37;101347.13;;;15.22;75.85
74045;BME280;62389;51.412;5.436;2023-07-13T01:59:02;101355.78;;;15.24;76.03
74045;BME280;62389;51.412;5.436;2023-07-13T02:01:28;101352.28;;;15.23;75.30
74045;BME280;62389;51.412;5.436;2023-07-13T02:03:53;101360.03;;;15.26;75.75
74045;BME280;62389;51.412;5.436;2023-07-13T02:06:19;101358.25;;;15.27;75.28
74045;BME280;62389;51.412;5.436;2023-07-13T02:08:44;101356.53;;;15.26;75.35
74045;BME280;62389;51.412;5.436;2023-07-13T02:11:09;101366.06;;;15.28;75.90
74045;BME280;62389;51.412;5.436;2023-07-13T02:13:35;101365.88;;;15.16;75.87
74045;BME280;62389;51.412;5.436;2023-07-13T02:16:00;101368.69;;;15.13;76.53
74045;BME280;62389;51.412;5.436;2023-07-13T02:18:26;101371.13;;;15.16;76.26
74045;BME280;62389;51.412;5.436;2023-07-13T02:20:51;101374.66;;;15.16;76.39
74045;BME280;62389;51.412;5.436;2023-07-13T02:23:17;101371.31;;;15.13;76.83
74045;BME280;62389;51.412;5.436;2023-07-13T02:25:42;101361.72;;;15.12;76.93
74045;BME280;62389;51.412;5.436;2023-07-13T02:28:08;101361.63;;;15.13;77.35
74045;BME280;62389;51.412;5.436;2023-07-13T02:30:34;101357.91;;;15.17;77.86
74045;BME280;62389;51.412;5.436;2023-07-13T02:33:00;101361.47;;;15.16;76.71
74045;BME280;62389;51.412;5.436;2023-07-13T02:35:25;101370.28;;;15.15;76.91
74045;BME280;62389;51.412;5.436;2023-07-13T02:37:51;101362.56;;;15.12;77.02
74045;BME280;62389;51.412;5.436;2023-07-13T02:40:16;101369.78;;;15.09;77.77
74045;BME280;62389;51.412;5.436;2023-07-13T02:42:41;101370.81;;;15.06;77.11
74045;BME280;62389;51.412;5.436;2023-07-13T02:45:08;101358.56;;;15.05;77.51
74045;BME280;62389;51.412;5.436;2023-07-13T02:47:35;101358.19;;;14.95;77.61
74045;BME280;62389;51.412;5.436;2023-07-13T02:50:01;101370.75;;;14.90;78.29
74045;BME280;62389;51.412;5.436;2023-07-13T02:52:26;101364.28;;;14.80;78.83
74045;BME280;62389;51.412;5.436;2023-07-13T02:54:53;101358.16;;;14.80;79.64
74045;BME280;62389;51.412;5.436;2023-07-13T02:57:18;101362.25;;;14.85;79.15
74045;BME280;62389;51.412;5.436;2023-07-13T02:59:44;101364.13;;;14.83;79.16
74045;BME280;62389;51.412;5.436;2023-07-13T03:02:09;101361.59;;;14.82;79.11
74045;BME280;62389;51.412;5.436;2023-07-13T03:04:36;101369.53;;;14.80;79.29
74045;BME280;62389;51.412;5.436;2023-07-13T03:07:02;101364.28;;;14.80;79.50
74045;BME280;62389;51.412;5.436;2023-07-13T03:09:28;101374.66;;;14.83;79.51
74045;BME280;62389;51.412;5.436;2023-07-13T03:11:54;101372.72;;;14.87;79.47
74045;BME280;62389;51.412;5.436;2023-07-13T03:14:21;101370.75;;;14.90;79.13
74045;BME280;62389;51.412;5.436;2023-07-13T03:16:46;101371.88;;;14.86;79.29
74045;BME280;62389;51.412;5.436;2023-07-13T03:19:12;101372.03;;;14.83;79.71
74045;BME280;62389;51.412;5.436;2023-07-13T03:21:37;101379.09;;;14.83;79.53
74045;BME280;62389;51.412;5.436;2023-07-13T03:24:02;101373.97;;;14.80;79.90
74045;BME280;62389;51.412;5.436;2023-07-13T03:26:28;101377.44;;;14.80;79.77
74045;BME280;62389;51.412;5.436;2023-07-13T03:28:53;101381.97;;;14.78;79.66
74045;BME280;62389;51.412;5.436;2023-07-13T03:31:21;101381.34;;;14.73;79.84
74045;BME280;62389;51.412;5.436;2023-07-13T03:33:47;101388.53;;;14.69;80.67
74045;BME280;62389;51.412;5.436;2023-07-13T03:36:19;101386.84;;;14.68;80.36
74045;BME280;62389;51.412;5.436;2023-07-13T03:38:49;101394.84;;;14.67;80.70
74045;BME280;62389;51.412;5.436;2023-07-13T03:41:16;101403.81;;;14.63;80.99
74045;BME280;62389;51.412;5.436;2023-07-13T03:43:42;101389.72;;;14.64;81.31
74045;BME280;62389;51.412;5.436;2023-07-13T03:46:08;101396.25;;;14.57;81.32
74045;BME280;62389;51.412;5.436;2023-07-13T03:48:33;101394.47;;;14.57;81.23
74045;BME280;62389;51.412;5.436;2023-07-13T03:50:58;101398.88;;;14.57;81.58
74045;BME280;62389;51.412;5.436;2023-07-13T03:53:24;101393.63;;;14.57;81.64
74045;BME280;62389;51.412;5.436;2023-07-13T03:55:49;101395.53;;;14.53;81.39
74045;BME280;62389;51.412;5.436;2023-07-13T03:58:34;101391.22;;;14.52;81.21
74045;BME280;62389;51.412;5.436;2023-07-13T04:01:02;101398.41;;;14.48;81.93
74045;BME280;62389;51.412;5.436;2023-07-13T04:03:28;101401.81;;;14.50;82.38
74045;BME280;62389;51.412;5.436;2023-07-13T04:05:57;101408.28;;;14.43;82.98
74045;BME280;62389;51.412;5.436;2023-07-13T04:08:26;101413.88;;;14.37;83.52
74045;BME280;62389;51.412;5.436;2023-07-13T04:10:52;101417.44;;;14.36;83.71
74045;BME280;62389;51.412;5.436;2023-07-13T04:13:17;101413.88;;;14.37;83.78
74045;BME280;62389;51.412;5.436;2023-07-13T04:15:43;101420.75;;;14.40;84.27
74045;BME280;62389;51.412;5.436;2023-07-13T04:18:08;101416.09;;;14.45;84.23
74045;BME280;62389;51.412;5.436;2023-07-13T04:20:34;101417.78;;;14.47;84.46
74045;BME280;62389;51.412;5.436;2023-07-13T04:22:59;101426.41;;;14.49;84.31
74045;BME280;62389;51.412;5.436;2023-07-13T04:25:25;101426.28;;;14.53;84.27
74045;BME280;62389;51.412;5.436;2023-07-13T04:27:50;101417.22;;;14.58;84.45
74045;BME280;62389;51.412;5.436;2023-07-13T04:30:15;101414.50;;;14.60;84.45
74045;BME280;62389;51.412;5.436;2023-07-13T04:32:41;101416.81;;;14.66;84.17
74045;BME280;62389;51.412;5.436;2023-07-13T04:35:06;101420.94;;;14.71;84.17
74045;BME280;62389;51.412;5.436;2023-07-13T04:37:32;101429.34;;;14.78;84.30
74045;BME280;62389;51.412;5.436;2023-07-13T04:39:57;101433.38;;;14.85;84.28
74045;BME280;62389;51.412;5.436;2023-07-13T04:42:23;101433.97;;;14.90;84.13
74045;BME280;62389;51.412;5.436;2023-07-13T04:44:49;101439.94;;;14.94;84.29
74045;BME280;62389;51.412;5.436;2023-07-13T04:47:15;101445.22;;;14.94;84.64
74045;BME280;62389;51.412;5.436;2023-07-13T04:49:40;101438.16;;;14.94;85.14
74045;BME280;62389;51.412;5.436;2023-07-13T04:52:06;101435.28;;;14.99;84.97
74045;BME280;62389;51.412;5.436;2023-07-13T04:54:33;101436.75;;;15.05;85.25
74045;BME280;62389;51.412;5.436;2023-07-13T04:56:59;101442.63;;;15.10;85.33
74045;BME280;62389;51.412;5.436;2023-07-13T04:59:24;101442.47;;;15.13;85.38
74045;BME280;62389;51.412;5.436;2023-07-13T05:01:49;101445.81;;;15.16;85.51
74045;BME280;62389;51.412;5.436;2023-07-13T05:04:15;101443.78;;;15.21;85.93
74045;BME280;62389;51.412;5.436;2023-07-13T05:06:40;101451.41;;;15.26;85.89
74045;BME280;62389;51.412;5.436;2023-07-13T05:09:05;101444.38;;;15.26;86.30
74045;BME280;62389;51.412;5.436;2023-07-13T05:11:32;101455.53;;;15.32;85.65
74045;BME280;62389;51.412;5.436;2023-07-13T05:13:57;101451.59;;;15.39;85.77
74045;BME280;62389;51.412;5.436;2023-07-13T05:16:23;101460.97;;;15.44;85.42
74045;BME280;62389;51.412;5.436;2023-07-13T05:18:48;101455.69;;;15.44;85.65
74045;BME280;62389;51.412;5.436;2023-07-13T05:21:14;101465.13;;;15.48;85.98
74045;BME280;62389;51.412;5.436;2023-07-13T05:23:39;101463.94;;;15.54;85.76
74045;BME280;62389;51.412;5.436;2023-07-13T05:26:06;101462.06;;;15.56;85.49
74045;BME280;62389;51.412;5.436;2023-07-13T05:28:32;101470.69;;;15.60;85.41
74045;BME280;62389;51.412;5.436;2023-07-13T05:30:58;101473.41;;;15.58;85.55
74045;BME280;62389;51.412;5.436;2023-07-13T05:33:24;101474.41;;;15.55;85.92
74045;BME280;62389;51.412;5.436;2023-07-13T05:35:50;101478.00;;;15.54;85.46
74045;BME280;62389;51.412;5.436;2023-07-13T05:38:15;101463.09;;;15.53;85.70
74045;BME280;62389;51.412;5.436;2023-07-13T05:40:44;101475.44;;;15.53;85.71
74045;BME280;62389;51.412;5.436;2023-07-13T05:43:10;101472.72;;;15.54;85.72
74045;BME280;62389;51.412;5.436;2023-07-13T05:45:36;101478.94;;;15.53;86.00
74045;BME280;62389;51.412;5.436;2023-07-13T05:48:01;101481.56;;;15.53;85.73
74045;BME280;62389;51.412;5.436;2023-07-13T05:50:27;101477.13;;;15.54;85.35
74045;BME280;62389;51.412;5.436;2023-07-13T05:52:52;101484.88;;;15.57;85.51
74045;BME280;62389;51.412;5.436;2023-07-13T05:55:18;101489.22;;;15.58;85.53
74045;BME280;62389;51.412;5.436;2023-07-13T05:57:44;101484.81;;;15.59;85.89
74045;BME280;62389;51.412;5.436;2023-07-13T06:00:10;101481.94;;;15.63;85.66
74045;BME280;62389;51.412;5.436;2023-07-13T06:02:35;101491.31;;;15.69;85.64
74045;BME280;62389;51.412;5.436;2023-07-13T06:05:01;101494.53;;;15.74;85.02
74045;BME280;62389;51.412;5.436;2023-07-13T06:07:26;101484.69;;;15.77;85.11
74045;BME280;62389;51.412;5.436;2023-07-13T06:09:51;101495.91;;;15.81;85.00
74045;BME280;62389;51.412;5.436;2023-07-13T06:12:17;101499.31;;;15.83;84.91
74045;BME280;62389;51.412;5.436;2023-07-13T06:14:42;101504.50;;;15.85;84.74
74045;BME280;62389;51.412;5.436;2023-07-13T06:17:08;101502.81;;;15.84;84.88
74045;BME280;62389;51.412;5.436;2023-07-13T06:19:34;101496.50;;;15.86;85.07
74045;BME280;62389;51.412;5.436;2023-07-13T06:21:59;101504.16;;;15.91;84.66
74045;BME280;62389;51.412;5.436;2023-07-13T06:24:25;101510.03;;;15.96;84.76
74045;BME280;62389;51.412;5.436;2023-07-13T06:26:50;101503.75;;;15.98;84.79
74045;BME280;62389;51.412;5.436;2023-07-13T06:29:16;101508.88;;;16.01;84.29
74045;BME280;62389;51.412;5.436;2023-07-13T06:31:41;101510.72;;;15.99;84.50
74045;BME280;62389;51.412;5.436;2023-07-13T06:34:07;101516.69;;;16.03;84.64
74045;BME280;62389;51.412;5.436;2023-07-13T06:36:32;101507.81;;;16.04;84.11
74045;BME280;62389;51.412;5.436;2023-07-13T06:38:58;101511.16;;;16.08;84.12
74045;BME280;62389;51.412;5.436;2023-07-13T06:41:23;101514.44;;;16.11;84.35
74045;BME280;62389;51.412;5.436;2023-07-13T06:43:51;101531.16;;;16.12;84.01
74045;BME280;62389;51.412;5.436;2023-07-13T06:46:17;101512.75;;;16.10;84.39
74045;BME280;62389;51.412;5.436;2023-07-13T06:48:42;101515.31;;;16.12;84.39
74045;BME280;62389;51.412;5.436;2023-07-13T06:51:07;101526.63;;;16.14;84.37
74045;BME280;62389;51.412;5.436;2023-07-13T06:53:33;101533.59;;;16.15;84.00
74045;BME280;62389;51.412;5.436;2023-07-13T06:55:58;101528.34;;;16.15;83.91
74045;BME280;62389;51.412;5.436;2023-07-13T06:58:24;101526.47;;;16.17;83.68
74045;BME280;62389;51.412;5.436;2023-07-13T07:00:52;101525.34;;;16.21;83.67
74045;BME280;62389;51.412;5.436;2023-07-13T07:03:18;101534.03;;;16.23;83.56
74045;BME280;62389;51.412;5.436;2023-07-13T07:05:43;101532.16;;;16.25;83.49
74045;BME280;62389;51.412;5.436;2023-07-13T07:08:09;101524.13;;;16.26;83.58
74045;BME280;62389;51.412;5.436;2023-07-13T07:10:35;101533.53;;;16.32;83.33
74045;BME280;62389;51.412;5.436;2023-07-13T07:13:01;101538.63;;;16.35;83.35
74045;BME280;62389;51.412;5.436;2023-07-13T07:15:26;101535.03;;;16.36;83.26
74045;BME280;62389;51.412;5.436;2023-07-13T07:17:52;101540.16;;;16.39;83.41
74045;BME280;62389;51.412;5.436;2023-07-13T07:20:17;101533.16;;;16.38;82.39
74045;BME280;62389;51.412;5.436;2023-07-13T07:22:43;101536.41;;;16.43;82.74
74045;BME280;62389;51.412;5.436;2023-07-13T07:25:08;101543.28;;;16.46;82.38
74045;BME280;62389;51.412;5.436;2023-07-13T07:27:33;101535.19;;;16.49;82.61
74045;BME280;62389;51.412;5.436;2023-07-13T07:29:59;101535.03;;;16.52;82.77
74045;BME280;62389;51.412;5.436;2023-07-13T07:32:25;101531.94;;;16.60;82.50
74045;BME280;62389;51.412;5.436;2023-07-13T07:34:50;101539.69;;;16.63;82.36
74045;BME280;62389;51.412;5.436;2023-07-13T07:37:16;101531.56;;;16.66;82.05
74045;BME280;62389;51.412;5.436;2023-07-13T07:39:43;101540.97;;;16.71;81.90
74045;BME280;62389;51.412;5.436;2023-07-13T07:42:08;101536.84;;;16.81;82.36
74045;BME280;62389;51.412;5.436;2023-07-13T07:44:34;101537.16;;;16.91;81.74
74045;BME280;62389;51.412;5.436;2023-07-13T07:47:00;101537.47;;;17.01;81.48
74045;BME280;62389;51.412;5.436;2023-07-13T07:49:26;101527.19;;;17.11;81.20
74045;BME280;62389;51.412;5.436;2023-07-13T07:51:51;101531.06;;;17.19;79.99
74045;BME280;62389;51.412;5.436;2023-07-13T07:54:17;101542.06;;;17.27;80.23
74045;BME280;62389;51.412;5.436;2023-07-13T07:56:42;101543.47;;;17.33;79.89
74045;BME280;62389;51.412;5.436;2023-07-13T07:59:08;101538.53;;;17.41;80.14
74045;BME280;62389;51.412;5.436;2023-07-13T08:01:33;101544.91;;;17.53;79.03
74045;BME280;62389;51.412;5.436;2023-07-13T08:03:59;101552.84;;;17.67;79.06
74045;BME280;62389;51.412;5.436;2023-07-13T08:06:24;101548.59;;;17.79;77.83
74045;BME280;62389;51.412;5.436;2023-07-13T08:08:50;101553.22;;;17.90;78.14
74045;BME280;62389;51.412;5.436;2023-07-13T08:11:16;101546.50;;;17.98;76.07
74045;BME280;62389;51.412;5.436;2023-07-13T08:13:41;101543.16;;;18.09;76.65
74045;BME280;62389;51.412;5.436;2023-07-13T08:16:07;101539.16;;;18.16;76.09
74045;BME280;62389;51.412;5.436;2023-07-13T08:18:32;101543.88;;;18.25;75.56
74045;BME280;62389;51.412;5.436;2023-07-13T08:20:58;101536.47;;;18.30;75.06
74045;BME280;62389;51.412;5.436;2023-07-13T08:23:24;101545.81;;;18.36;73.68
74045;BME280;62389;51.412;5.436;2023-07-13T08:25:54;101544.56;;;18.42;74.17
74045;BME280;62389;51.412;5.436;2023-07-13T08:28:20;101544.06;;;18.49;73.43
74045;BME280;62389;51.412;5.436;2023-07-13T08:30:46;101545.91;;;18.61;73.35
74045;BME280;62389;51.412;5.436;2023-07-13T08:33:16;101556.50;;;18.61;70.41
74045;BME280;62389;51.412;5.436;2023-07-13T08:35:41;101558.72;;;18.55;70.79
74045;BME280;62389;51.412;5.436;2023-07-13T08:38:06;101551.72;;;18.54;71.37
74045;BME280;62389;51.412;5.436;2023-07-13T08:40:33;101552.91;;;18.62;71.63
74045;BME280;62389;51.412;5.436;2023-07-13T08:42:59;101556.88;;;18.70;70.97
74045;BME280;62389;51.412;5.436;2023-07-13T08:45:46;101549.59;;;18.73;71.28
74045;BME280;62389;51.412;5.436;2023-07-13T08:48:44;101547.91;;;18.85;70.99
74045;BME280;62389;51.412;5.436;2023-07-13T08:51:44;101550.78;;;18.95;71.09
74045;BME280;62389;51.412;5.436;2023-07-13T08:54:27;101555.13;;;18.96;69.92
74045;BME280;62389;51.412;5.436;2023-07-13T08:56:55;101552.16;;;19.00;69.38
74045;BME280;62389;51.412;5.436;2023-07-13T08:59:26;101551.00;;;19.04;68.00
74045;BME280;62389;51.412;5.436;2023-07-13T09:04:59;101548.69;;;19.00;68.53
74045;BME280;62389;51.412;5.436;2023-07-13T09:12:53;101544.22;;;19.00;67.97
74045;BME280;62389;51.412;5.436;2023-07-13T09:15:29;101552.19;;;19.26;67.40
74045;BME280;62389;51.412;5.436;2023-07-13T09:18:08;101549.78;;;19.98;66.33
74045;BME280;62389;51.412;5.436;2023-07-13T09:20:46;101540.34;;;21.25;61.67
74045;BME280;62389;51.412;5.436;2023-07-13T09:23:20;101540.81;;;22.19;59.85
74045;BME280;62389;51.412;5.436;2023-07-13T09:25:54;101533.72;;;22.94;56.73
74045;BME280;62389;51.412;5.436;2023-07-13T09:28:27;101541.00;;;23.95;54.77
74045;BME280;62389;51.412;5.436;2023-07-13T09:33:25;101538.25;;;23.45;51.32
74045;BME280;62389;51.412;5.436;2023-07-13T09:35:54;101528.38;;;23.66;50.98
74045;BME280;62389;51.412;5.436;2023-07-13T09:38:22;101534.19;;;24.70;50.26
74045;BME280;62389;51.412;5.436;2023-07-13T09:44:16;101547.66;;;24.29;49.13
74045;BME280;62389;51.412;5.436;2023-07-13T09:46:52;101552.13;;;24.00;50.03
74045;BME280;62389;51.412;5.436;2023-07-13T09:49:18;101546.88;;;23.07;52.91
74045;BME280;62389;51.412;5.436;2023-07-13T09:51:44;101547.00;;;22.52;54.26
74045;BME280;62389;51.412;5.436;2023-07-13T09:54:23;101548.34;;;21.92;56.66
74045;BME280;62389;51.412;5.436;2023-07-13T09:56:57;101547.03;;;21.53;57.01
74045;BME280;62389;51.412;5.436;2023-07-13T09:59:27;101548.34;;;21.58;58.07
74045;BME280;62389;51.412;5.436;2023-07-13T10:01:53;101545.59;;;21.71;57.84
74045;BME280;62389;51.412;5.436;2023-07-13T10:04:21;101548.09;;;22.06;59.48
74045;BME280;62389;51.412;5.436;2023-07-13T10:06:47;101546.03;;;22.10;57.17
74045;BME280;62389;51.412;5.436;2023-07-13T10:09:17;101543.03;;;22.14;58.06
74045;BME280;62389;51.412;5.436;2023-07-13T10:11:43;101552.94;;;21.79;56.79
74045;BME280;62389;51.412;5.436;2023-07-13T10:16:35;101538.19;;;21.41;58.04
74045;BME280;62389;51.412;5.436;2023-07-13T10:19:11;101549.09;;;21.60;59.30
74045;BME280;62389;51.412;5.436;2023-07-13T10:24:22;101542.31;;;21.56;57.66
74045;BME280;62389;51.412;5.436;2023-07-13T10:27:00;101545.09;;;21.77;56.49
74045;BME280;62389;51.412;5.436;2023-07-13T10:29:27;101545.81;;;21.57;56.61
74045;BME280;62389;51.412;5.436;2023-07-13T10:31:54;101556.13;;;21.39;56.56
74045;BME280;62389;51.412;5.436;2023-07-13T10:34:22;101557.00;;;21.27;58.06
74045;BME280;62389;51.412;5.436;2023-07-13T10:36:48;101551.22;;;21.21;58.66
74045;BME280;62389;51.412;5.436;2023-07-13T10:39:26;101550.72;;;21.16;59.75
74045;BME280;62389;51.412;5.436;2023-07-13T10:41:55;101558.19;;;21.11;58.35
74045;BME280;62389;51.412;5.436;2023-07-13T10:44:27;101559.50;;;20.94;57.68
74045;BME280;62389;51.412;5.436;2023-07-13T10:46:57;101559.81;;;20.79;56.88
74045;BME280;62389;51.412;5.436;2023-07-13T10:49:24;101561.31;;;20.59;57.26
74045;BME280;62389;51.412;5.436;2023-07-13T10:51:51;101574.94;;;20.41;60.46
74045;BME280;62389;51.412;5.436;2023-07-13T10:54:30;101572.41;;;20.40;61.40
74045;BME280;62389;51.412;5.436;2023-07-13T10:57:19;101577.41;;;20.68;61.84
74045;BME280;62389;51.412;5.436;2023-07-13T11:00:13;101569.22;;;20.83;61.32
74045;BME280;62389;51.412;5.436;2023-07-13T11:02:39;101563.13;;;20.93;59.38
74045;BME280;62389;51.412;5.436;2023-07-13T11:05:28;101569.28;;;20.94;57.89
74045;BME280;62389;51.412;5.436;2023-07-13T11:08:33;101564.47;;;20.99;59.48
74045;BME280;62389;51.412;5.436;2023-07-13T11:11:01;101561.81;;;21.10;59.62
74045;BME280;62389;51.412;5.436;2023-07-13T11:16:12;101566.84;;;20.91;56.99
74045;BME280;62389;51.412;5.436;2023-07-13T11:18:38;101563.69;;;20.86;59.44
74045;BME280;62389;51.412;5.436;2023-07-13T11:21:26;101568.63;;;20.79;58.14
74045;BME280;62389;51.412;5.436;2023-07-13T11:24:01;101568.63;;;20.79;56.43
74045;BME280;62389;51.412;5.436;2023-07-13T11:26:52;101556.94;;;20.93;56.20
74045;BME280;62389;51.412;5.436;2023-07-13T11:31:43;101558.78;;;21.50;53.98
74045;BME280;62389;51.412;5.436;2023-07-13T11:34:28;101556.22;;;21.82;54.02
74045;BME280;62389;51.412;5.436;2023-07-13T11:36:56;101558.75;;;22.17;54.94
74045;BME280;62389;51.412;5.436;2023-07-13T11:39:24;101559.09;;;22.24;52.88
74045;BME280;62389;51.412;5.436;2023-07-13T11:41:56;101549.75;;;22.07;54.25
74045;BME280;62389;51.412;5.436;2023-07-13T11:44:24;101562.25;;;22.07;55.14
74045;BME280;62389;51.412;5.436;2023-07-13T11:46:57;101556.81;;;22.19;55.02
74045;BME280;62389;51.412;5.436;2023-07-13T11:49:29;101558.00;;;22.27;51.05
74045;BME280;62389;51.412;5.436;2023-07-13T11:51:56;101550.69;;;22.40;51.39
74045;BME280;62389;51.412;5.436;2023-07-13T11:54:26;101550.72;;;22.61;51.31
74045;BME280;62389;51.412;5.436;2023-07-13T11:56:53;101558.81;;;22.70;50.00
74045;BME280;62389;51.412;5.436;2023-07-13T12:01:49;101565.28;;;22.89;50.42
74045;BME280;62389;51.412;5.436;2023-07-13T12:04:23;101546.81;;;22.97;51.26
74045;BME280;62389;51.412;5.436;2023-07-13T12:06:55;101567.09;;;23.09;49.25
74045;BME280;62389;51.412;5.436;2023-07-13T12:09:21;101559.63;;;23.03;48.06
74045;BME280;62389;51.412;5.436;2023-07-13T12:11:50;101566.19;;;22.99;50.65
74045;BME280;62389;51.412;5.436;2023-07-13T12:14:17;101564.88;;;23.05;46.05
74045;BME280;62389;51.412;5.436;2023-07-13T12:16:45;101567.31;;;23.17;46.25
74045;BME280;62389;51.412;5.436;2023-07-13T12:19:22;101579.44;;;23.21;46.77
74045;BME280;62389;51.412;5.436;2023-07-13T12:21:48;101564.75;;;23.37;46.83
74045;BME280;62389;51.412;5.436;2023-07-13T12:24:18;101574.91;;;23.43;46.04
74045;BME280;62389;51.412;5.436;2023-07-13T12:26:51;101580.25;;;23.43;46.13
74045;BME280;62389;51.412;5.436;2023-07-13T12:29:17;101582.22;;;23.41;45.87
74045;BME280;62389;51.412;5.436;2023-07-13T12:31:44;101578.44;;;23.22;45.65
74045;BME280;62389;51.412;5.436;2023-07-13T12:34:14;101583.84;;;23.11;47.06
74045;BME280;62389;51.412;5.436;2023-07-13T12:37:08;101583.84;;;23.11;48.16
74045;BME280;62389;51.412;5.436;2023-07-13T12:39:43;101579.53;;;22.99;47.99
74045;BME280;62389;51.412;5.436;2023-07-13T12:42:31;101586.28;;;22.82;48.88
74045;BME280;62389;51.412;5.436;2023-07-13T12:45:11;101600.56;;;22.49;50.22
74045;BME280;62389;51.412;5.436;2023-07-13T12:47:42;101603.31;;;22.15;50.52
74045;BME280;62389;51.412;5.436;2023-07-13T12:50:19;101599.19;;;21.78;50.74
74045;BME280;62389;51.412;5.436;2023-07-13T12:52:51;101603.66;;;21.55;52.57
74045;BME280;62389;51.412;5.436;2023-07-13T12:55:19;101605.94;;;21.37;51.85
74045;BME280;62389;51.412;5.436;2023-07-13T12:57:53;101615.28;;;21.18;53.53
74045;BME280;62389;51.412;5.436;2023-07-13T13:00:31;101605.31;;;20.98;54.37
74045;BME280;62389;51.412;5.436;2023-07-13T13:03:02;101606.94;;;20.88;56.65
74045;BME280;62389;51.412;5.436;2023-07-13T13:05:30;101619.53;;;20.62;57.61
74045;BME280;62389;51.412;5.436;2023-07-13T13:07:55;101620.34;;;20.38;59.55
74045;BME280;62389;51.412;5.436;2023-07-13T13:10:21;101634.63;;;20.25;61.44
74045;BME280;62389;51.412;5.436;2023-07-13T13:12:47;101631.97;;;20.12;65.73
74045;BME280;62389;51.412;5.436;2023-07-13T13:15:13;101628.59;;;19.97;68.98
74045;BME280;62389;51.412;5.436;2023-07-13T13:17:39;101630.00;;;19.90;67.96
74045;BME280;62389;51.412;5.436;2023-07-13T13:20:25;101627.47;;;19.76;67.09
74045;BME280;62389;51.412;5.436;2023-07-13T13:22:53;101631.91;;;19.62;67.39
74045;BME280;62389;51.412;5.436;2023-07-13T13:25:19;101641.59;;;19.63;68.18